Time;durP1;ratioP1;P1;durP2;ratioP2;P2;SDS_P1;SDS_P2;PMS_P1;PMS_P2;Temp;Humidity;BMP_temperature;BMP_pressure;BME280_temperature;BME280_humidity;BME280_pressure;Samples;Min_cycle;Max_cycle;Signal;HPM_P1;HPM_P2
2023/10/14 00:01:34;;;;;;;47.47;7.20;;;;;;;;;;5113920;28;20134;-51
2023/10/14 00:04:04;;;;;;;45.47;6.70;;;;;;;;;;5113915;28;20035;-40
2023/10/14 00:06:38;;;;;;;51.35;6.88;;;;;;;;;;5109734;28;20122;-41
2023/10/14 00:09:11;;;;;;;38.55;6.55;;;;;;;;;;5111282;28;20032;-40
2023/10/14 00:11:49;;;;;;;43.15;6.75;;;;;;;;;;5105307;28;20039;-45
2023/10/14 00:14:18;;;;;;;34.22;6.45;;;;;;;;;;5085580;28;20023;-50
2023/10/14 00:16:49;;;;;;;32.63;5.80;;;;;;;;;;5113596;28;20043;-52
2023/10/14 00:19:20;;;;;;;38.10;5.78;;;;;;;;;;5113656;28;20039;-50
2023/10/14 00:21:50;;;;;;;32.80;5.75;;;;;;;;;;5090119;28;20031;-50
2023/10/14 00:24:28;;;;;;;41.58;7.00;;;;;;;;;;5113161;28;20035;-45
2023/10/14 00:26:55;;;;;;;46.05;7.25;;;;;;;;;;5112948;28;20040;-48
2023/10/14 00:29:22;;;;;;;45.20;7.00;;;;;;;;;;5112931;28;20072;-47
2023/10/14 00:31:51;;;;;;;39.22;6.78;;;;;;;;;;5112892;28;20034;-48
2023/10/14 00:34:22;;;;;;;34.85;6.47;;;;;;;;;;5113214;28;20043;-45
2023/10/14 00:36:50;;;;;;;44.37;6.33;;;;;;;;;;5112330;28;20039;-41
2023/10/14 00:39:17;;;;;;;31.30;6.40;;;;;;;;;;5112040;28;20051;-41
2023/10/14 00:41:44;;;;;;;41.70;6.60;;;;;;;;;;5112717;28;20118;-42
2023/10/14 00:44:12;;;;;;;31.90;6.90;;;;;;;;;;5111653;28;20110;-43
2023/10/14 00:46:48;;;;;;;38.47;5.80;;;;;;;;;;5111431;28;20042;-41
2023/10/14 00:49:16;;;;;;;28.08;6.18;;;;;;;;;;5111643;28;20047;-41
2023/10/14 00:51:46;;;;;;;29.65;6.80;;;;;;;;;;5112374;28;20023;-40
2023/10/14 00:54:25;;;;;;;25.52;6.85;;;;;;;;;;5112625;28;20028;-39
2023/10/14 00:56:53;;;;;;;33.92;7.00;;;;;;;;;;5110919;28;20039;-46
2023/10/14 00:59:20;;;;;;;24.88;6.45;;;;;;;;;;5111367;28;20028;-45
2023/10/14 01:02:05;;;;;;;27.30;6.55;;;;;;;;;;5112175;28;20036;-42
2023/10/14 01:04:33;;;;;;;26.65;5.82;;;;;;;;;;5106470;28;20500;-41
2023/10/14 01:07:04;;;;;;;24.48;6.30;;;;;;;;;;5112590;28;20023;-41
2023/10/14 01:09:53;;;;;;;25.75;5.45;;;;;;;;;;5103638;28;20032;-39
2023/10/14 01:14:53;;;;;;;50.10;7.22;;;;;;;;;;5112248;28;20477;-39
2023/10/14 01:17:30;;;;;;;33.58;6.22;;;;;;;;;;5112027;28;20040;-42
2023/10/14 01:20:40;;;;;;;50.28;6.80;;;;;;;;;;5112141;28;20501;-42
2023/10/14 01:22:58;;;;;;;34.08;6.20;;;;;;;;;;5103203;28;20050;-40
2023/10/14 01:25:29;;;;;;;34.05;6.88;;;;;;;;;;5111665;28;20070;-45
2023/10/14 01:28:06;;;;;;;38.22;6.93;;;;;;;;;;5111799;28;20039;-41
2023/10/14 01:30:37;;;;;;;43.28;10.80;;;;;;;;;;5112012;28;20039;-41
2023/10/14 01:33:12;;;;;;;23.77;6.60;;;;;;;;;;5111937;28;20028;-42
2023/10/14 01:35:45;;;;;;;30.77;7.63;;;;;;;;;;5111631;28;20104;-39
2023/10/14 01:38:13;;;;;;;40.63;7.97;;;;;;;;;;5111451;28;20039;-40
2023/10/14 01:40:49;;;;;;;34.53;7.45;;;;;;;;;;5110580;28;20064;-41
2023/10/14 01:43:17;;;;;;;32.75;6.88;;;;;;;;;;5111252;28;20051;-42
2023/10/14 01:45:50;;;;;;;28.38;7.53;;;;;;;;;;5110382;28;20469;-46
2023/10/14 01:48:21;;;;;;;26.73;7.03;;;;;;;;;;5111400;28;20110;-53
2023/10/14 01:50:59;;;;;;;34.75;7.05;;;;;;;;;;5111492;28;20062;-40
2023/10/14 01:53:28;;;;;;;33.50;6.85;;;;;;;;;;5111438;28;20043;-47
2023/10/14 01:55:59;;;;;;;37.20;6.25;;;;;;;;;;5111436;28;20036;-42
2023/10/14 01:58:30;;;;;;;29.92;6.53;;;;;;;;;;5111131;28;20130;-44
2023/10/14 02:03:41;;;;;;;20.98;5.60;;;;;;;;;;5109280;28;20077;-44
2023/10/14 02:06:16;;;;;;;24.30;5.68;;;;;;;;;;5111348;28;20027;-49
2023/10/14 02:08:51;;;;;;;27.92;5.15;;;;;;;;;;5100874;28;20084;-42
2023/10/14 02:11:33;;;;;;;25.38;5.65;;;;;;;;;;5111160;28;20379;-41
2023/10/14 02:14:07;;;;;;;21.00;4.40;;;;;;;;;;5111127;28;20035;-41
2023/10/14 02:16:47;;;;;;;26.58;5.13;;;;;;;;;;5092757;28;20486;-41
2023/10/14 02:19:18;;;;;;;25.90;5.15;;;;;;;;;;5109010;28;20081;-42
2023/10/14 02:21:49;;;;;;;19.17;4.35;;;;;;;;;;5110660;28;20473;-41
2023/10/14 02:24:18;;;;;;;25.00;4.70;;;;;;;;;;5111192;28;20085;-39
2023/10/14 02:26:48;;;;;;;27.00;3.95;;;;;;;;;;5110937;28;20130;-42
2023/10/14 02:29:15;;;;;;;29.88;5.05;;;;;;;;;;5109830;28;20494;-46
2023/10/14 02:31:45;;;;;;;23.08;4.90;;;;;;;;;;5109203;28;20107;-41
2023/10/14 02:34:15;;;;;;;20.92;4.20;;;;;;;;;;5100924;28;20109;-44
2023/10/14 02:36:48;;;;;;;25.00;4.43;;;;;;;;;;5102501;28;20032;-41
2023/10/14 02:39:16;;;;;;;21.65;3.45;;;;;;;;;;5099197;28;20035;-42
2023/10/14 02:41:44;;;;;;;30.85;4.22;;;;;;;;;;5081551;28;20055;-41
2023/10/14 02:46:46;;;;;;;30.08;4.10;;;;;;;;;;5102494;28;20122;-39
2023/10/14 02:49:18;;;;;;;18.50;3.40;;;;;;;;;;5099296;28;20504;-46
2023/10/14 02:51:45;;;;;;;;;;;;;;;;;;5101310;28;20016;-43
2023/10/14 02:55:18;;;;;;;17.42;3.15;;;;;;;;;;5099504;28;19912;-53
2023/10/14 02:57:12;;;;;;;15.23;3.03;;;;;;;;;;5099817;28;20043;-43
2023/10/14 02:59:43;;;;;;;14.40;3.40;;;;;;;;;;5111263;28;20036;-42
2023/10/14 03:02:14;;;;;;;21.23;3.00;;;;;;;;;;5092942;28;20035;-43
2023/10/14 03:07:21;;;;;;;19.92;3.58;;;;;;;;;;5107928;28;20123;-42
2023/10/14 03:09:49;;;;;;;15.55;2.97;;;;;;;;;;5098356;28;20140;-44
2023/10/14 03:12:18;;;;;;;16.55;3.63;;;;;;;;;;5105402;28;20027;-45
2023/10/14 03:14:55;;;;;;;14.68;2.60;;;;;;;;;;5114381;28;20089;-41
2023/10/14 03:17:38;;;;;;;14.95;2.40;;;;;;;;;;5114810;28;20096;-42
2023/10/14 03:23:32;;;;;;;16.38;2.40;;;;;;;;;;5101850;28;20043;-42
2023/10/14 03:26:26;;;;;;;12.45;2.50;;;;;;;;;;5051419;28;20049;-42
2023/10/14 03:28:50;;;;;;;9.95;2.08;;;;;;;;;;5092242;28;20044;-45
2023/10/14 03:31:19;;;;;;;14.32;2.35;;;;;;;;;;5094233;28;20039;-45
2023/10/14 03:33:47;;;;;;;8.07;2.08;;;;;;;;;;5075805;28;20028;-46
2023/10/14 03:36:19;;;;;;;14.05;2.30;;;;;;;;;;5094030;28;20089;-43
2023/10/14 03:38:54;;;;;;;13.48;1.80;;;;;;;;;;5093937;28;20028;-43
2023/10/14 03:41:23;;;;;;;10.40;2.13;;;;;;;;;;5096658;28;20055;-47
2023/10/14 03:43:58;;;;;;;12.07;2.28;;;;;;;;;;5104506;28;20397;-45
2023/10/14 03:46:35;;;;;;;10.23;1.80;;;;;;;;;;5103475;28;20032;-43
2023/10/14 03:49:06;;;;;;;13.27;2.08;;;;;;;;;;5093813;28;20492;-43
2023/10/14 03:51:35;;;;;;;10.82;2.10;;;;;;;;;;5093823;28;20082;-43
2023/10/14 03:54:08;;;;;;;13.38;1.85;;;;;;;;;;5093827;28;20020;-47
2023/10/14 03:56:36;;;;;;;9.82;1.90;;;;;;;;;;5093589;28;20119;-47
2023/10/14 03:59:03;;;;;;;7.50;1.70;;;;;;;;;;5093251;28;20512;-46
2023/10/14 04:01:43;;;;;;;10.30;1.90;;;;;;;;;;5093989;28;20052;-44
2023/10/14 04:04:18;;;;;;;10.93;1.95;;;;;;;;;;5094336;28;20028;-43
2023/10/14 04:12:29;;;;;;;9.77;1.50;;;;;;;;;;5094369;28;20035;-43
2023/10/14 04:14:54;;;;;;;11.82;1.50;;;;;;;;;;5093095;28;20097;-42
2023/10/14 04:17:30;;;;;;;8.15;1.65;;;;;;;;;;5093615;28;20119;-43
2023/10/14 04:20:46;;;;;;;8.45;1.45;;;;;;;;;;5093705;28;20024;-42
2023/10/14 04:22:45;;;;;;;7.32;1.85;;;;;;;;;;5085991;28;20032;-42
2023/10/14 04:30:38;;;;;;;9.10;1.73;;;;;;;;;;5077618;28;20028;-42
2023/10/14 04:33:16;;;;;;;8.48;1.27;;;;;;;;;;5093490;28;20441;-42
2023/10/14 04:38:37;;;;;;;7.43;1.48;;;;;;;;;;5093742;28;20039;-42
2023/10/14 04:41:14;;;;;;;5.10;1.13;;;;;;;;;;5093592;28;20110;-43
2023/10/14 04:46:21;;;;;;;7.15;1.67;;;;;;;;;;5093747;28;20036;-44
2023/10/14 04:48:58;;;;;;;9.40;1.40;;;;;;;;;;5093158;28;20111;-44
2023/10/14 04:51:36;;;;;;;3.55;1.13;;;;;;;;;;5093403;28;20027;-42
2023/10/14 04:54:09;;;;;;;9.75;1.40;;;;;;;;;;5093167;28;20035;-47
2023/10/14 04:56:36;;;;;;;5.60;1.27;;;;;;;;;;5092822;28;20783;-45
2023/10/14 04:59:06;;;;;;;6.00;1.30;;;;;;;;;;5093203;28;20032;-47
2023/10/14 05:01:34;;;;;;;8.98;1.52;;;;;;;;;;5092883;28;20099;-47
2023/10/14 05:04:01;;;;;;;6.93;1.20;;;;;;;;;;5093007;28;20028;-42
2023/10/14 05:06:39;;;;;;;4.57;1.42;;;;;;;;;;5093143;28;20506;-43
2023/10/14 05:09:09;;;;;;;5.90;1.30;;;;;;;;;;5092788;28;20080;-47
2023/10/14 05:11:37;;;;;;;6.45;1.23;;;;;;;;;;5092955;28;20036;-42
2023/10/14 05:14:16;;;;;;;8.68;1.05;;;;;;;;;;5075153;28;20031;-42
2023/10/14 05:16:57;;;;;;;7.85;1.95;;;;;;;;;;5092826;28;20032;-43
2023/10/14 05:19:30;;;;;;;7.53;1.48;;;;;;;;;;5090420;28;20486;-42
2023/10/14 05:25:02;;;;;;;6.10;1.23;;;;;;;;;;5072914;28;20040;-45
2023/10/14 05:27:55;;;;;;;6.45;1.13;;;;;;;;;;5092323;28;20048;-45
2023/10/14 05:30:24;;;;;;;;;;;;;;;;;;5092813;28;20064;-47
2023/10/14 05:32:52;;;;;;;5.13;1.05;;;;;;;;;;5092819;28;19904;-43
2023/10/14 05:35:22;;;;;;;7.32;1.25;;;;;;;;;;5092159;28;20063;-42
2023/10/14 05:37:50;;;;;;;5.20;1.00;;;;;;;;;;5092455;28;20039;-42
2023/10/14 05:40:17;;;;;;;5.85;1.23;;;;;;;;;;5091696;28;20140;-50
2023/10/14 05:42:45;;;;;;;8.95;1.17;;;;;;;;;;5091993;28;20028;-46
2023/10/14 05:45:12;;;;;;;11.50;1.42;;;;;;;;;;5091957;28;20038;-46
2023/10/14 05:47:42;;;;;;;7.40;1.45;;;;;;;;;;5091741;28;20028;-49
2023/10/14 05:50:14;;;;;;;10.43;1.10;;;;;;;;;;5091741;28;20386;-45
2023/10/14 05:52:46;;;;;;;7.90;1.23;;;;;;;;;;5091645;28;20089;-46
2023/10/14 05:55:17;;;;;;;7.80;1.10;;;;;;;;;;5091814;28;20039;-50
2023/10/14 05:57:44;;;;;;;10.80;1.30;;;;;;;;;;5073500;28;20091;-45
2023/10/14 06:00:25;;;;;;;6.15;1.23;;;;;;;;;;5091756;28;20028;-47
2023/10/14 06:02:53;;;;;;;4.38;1.10;;;;;;;;;;5090731;28;20036;-43
2023/10/14 06:05:25;;;;;;;3.95;1.08;;;;;;;;;;5091631;28;20032;-42
2023/10/14 06:07:59;;;;;;;7.30;1.02;;;;;;;;;;5091600;28;20103;-42
2023/10/14 06:10:29;;;;;;;6.10;1.25;;;;;;;;;;5091517;28;20032;-43
2023/10/14 06:12:59;;;;;;;4.13;1.20;;;;;;;;;;5091456;28;20063;-42
2023/10/14 06:15:26;;;;;;;5.40;0.90;;;;;;;;;;5091554;28;20032;-42
2023/10/14 06:17:57;;;;;;;3.75;0.90;;;;;;;;;;5091540;28;20035;-42
2023/10/14 06:20:24;;;;;;;3.53;0.80;;;;;;;;;;5091448;28;20085;-42
2023/10/14 06:22:56;;;;;;;4.20;1.00;;;;;;;;;;5091560;28;20059;-43
2023/10/14 06:25:23;;;;;;;3.90;1.00;;;;;;;;;;5091424;28;20382;-42
2023/10/14 06:27:53;;;;;;;8.68;1.23;;;;;;;;;;5091579;28;20020;-43
2023/10/14 06:30:20;;;;;;;6.88;0.98;;;;;;;;;;5091479;28;20082;-43
2023/10/14 06:32:48;;;;;;;5.72;1.02;;;;;;;;;;5091464;28;20051;-42
2023/10/14 06:35:17;;;;;;;3.83;0.80;;;;;;;;;;5091274;28;20482;-44
2023/10/14 06:37:45;;;;;;;8.13;1.02;;;;;;;;;;5091136;28;20093;-43
2023/10/14 06:40:14;;;;;;;2.38;0.85;;;;;;;;;;5091299;28;20395;-42
2023/10/14 06:42:43;;;;;;;6.40;0.90;;;;;;;;;;5091276;28;20478;-43
2023/10/14 06:45:13;;;;;;;5.88;0.90;;;;;;;;;;5091200;28;20032;-42
2023/10/14 06:47:49;;;;;;;10.88;1.25;;;;;;;;;;5092128;28;20028;-42
2023/10/14 06:50:23;;;;;;;3.78;0.85;;;;;;;;;;5095143;28;20111;-42
2023/10/14 06:52:53;;;;;;;7.55;1.35;;;;;;;;;;5095122;28;20494;-43
2023/10/14 06:55:26;;;;;;;5.05;1.27;;;;;;;;;;5094906;28;20405;-42
2023/10/14 06:57:55;;;;;;;6.20;0.88;;;;;;;;;;5094855;28;20032;-42
2023/10/14 07:00:31;;;;;;;6.72;1.20;;;;;;;;;;5095072;28;20020;-44
2023/10/14 07:03:02;;;;;;;5.30;1.27;;;;;;;;;;5094969;28;20476;-42
2023/10/14 07:05:30;;;;;;;6.03;0.80;;;;;;;;;;5094941;28;20157;-42
2023/10/14 07:08:01;;;;;;;3.08;1.00;;;;;;;;;;5094680;28;20518;-43
2023/10/14 07:10:28;;;;;;;7.95;1.20;;;;;;;;;;5094767;28;20060;-42
2023/10/14 07:12:58;;;;;;;4.07;0.90;;;;;;;;;;5095434;28;20033;-45
2023/10/14 07:15:32;;;;;;;5.03;1.45;;;;;;;;;;5094757;28;20048;-42
2023/10/14 07:18:01;;;;;;;8.23;1.02;;;;;;;;;;5094474;28;20039;-42
2023/10/14 07:20:31;;;;;;;4.07;1.08;;;;;;;;;;5076389;28;20508;-42
2023/10/14 07:22:58;;;;;;;4.72;1.20;;;;;;;;;;5094821;28;20095;-42
2023/10/14 07:25:26;;;;;;;4.07;1.05;;;;;;;;;;5094479;28;20039;-42
2023/10/14 07:27:53;;;;;;;6.63;1.13;;;;;;;;;;5094516;28;20039;-42
2023/10/14 07:30:26;;;;;;;7.88;1.00;;;;;;;;;;5094706;28;20028;-44
2023/10/14 07:32:53;;;;;;;6.60;1.00;;;;;;;;;;5094696;28;20031;-42
2023/10/14 07:35:20;;;;;;;4.10;1.23;;;;;;;;;;5094347;28;20032;-43
2023/10/14 07:37:48;;;;;;;2.25;0.75;;;;;;;;;;5094227;28;20110;-42
2023/10/14 07:40:23;;;;;;;6.47;1.17;;;;;;;;;;5094480;28;20375;-44
2023/10/14 07:42:53;;;;;;;5.68;1.20;;;;;;;;;;5094699;28;20024;-42
2023/10/14 07:45:21;;;;;;;4.93;0.82;;;;;;;;;;5094412;28;20040;-44
2023/10/14 07:47:49;;;;;;;4.72;0.95;;;;;;;;;;5094210;28;20103;-43
2023/10/14 07:50:16;;;;;;;4.60;1.13;;;;;;;;;;5094462;28;20035;-44
2023/10/14 07:52:43;;;;;;;5.05;1.08;;;;;;;;;;5094078;28;20028;-45
2023/10/14 07:55:15;;;;;;;4.78;1.08;;;;;;;;;;5093914;28;20154;-42
2023/10/14 07:57:43;;;;;;;2.75;0.77;;;;;;;;;;5094007;28;20360;-42
2023/10/14 08:00:12;;;;;;;3.45;0.80;;;;;;;;;;5093750;28;20039;-42
2023/10/14 08:02:40;;;;;;;4.18;0.80;;;;;;;;;;5093670;28;20032;-42
2023/10/14 08:05:08;;;;;;;3.53;0.70;;;;;;;;;;5093879;28;20032;-45
2023/10/14 08:07:40;;;;;;;5.18;1.00;;;;;;;;;;5093720;28;20085;-42
2023/10/14 08:10:16;;;;;;;;;;;;;;;;;;5093977;28;20042;-42
2023/10/14 08:12:47;;;;;;;4.18;0.80;;;;;;;;;;5093564;28;19986;-44
2023/10/14 08:15:17;;;;;;;5.03;1.15;;;;;;;;;;5093543;28;20466;-43
2023/10/14 08:17:45;;;;;;;4.13;0.75;;;;;;;;;;5093345;28;20530;-42
2023/10/14 08:20:18;;;;;;;4.60;1.00;;;;;;;;;;5093503;28;20032;-42
2023/10/14 08:22:46;;;;;;;2.65;1.00;;;;;;;;;;5093341;28;20028;-44
2023/10/14 08:25:13;;;;;;;3.42;0.90;;;;;;;;;;5093288;28;20036;-42
2023/10/14 08:27:40;;;;;;;4.60;0.90;;;;;;;;;;5093066;28;20059;-43
2023/10/14 08:30:11;;;;;;;5.75;0.85;;;;;;;;;;5093348;28;20024;-42
2023/10/14 08:32:42;;;;;;;2.63;0.80;;;;;;;;;;5093300;28;20026;-42
2023/10/14 08:35:27;;;;;;;2.42;0.85;;;;;;;;;;5093184;28;20074;-43
2023/10/14 08:37:55;;;;;;;3.08;0.82;;;;;;;;;;5092975;28;20036;-42
2023/10/14 08:40:25;;;;;;;1.90;0.80;;;;;;;;;;5092981;28;20043;-43
2023/10/14 08:43:06;;;;;;;3.70;0.82;;;;;;;;;;5093125;28;20032;-43
2023/10/14 08:45:38;;;;;;;2.00;0.88;;;;;;;;;;5093046;28;20486;-43
2023/10/14 08:48:08;;;;;;;2.67;1.10;;;;;;;;;;5092898;28;20107;-44
2023/10/14 08:50:35;;;;;;;3.28;0.80;;;;;;;;;;5092714;28;20093;-42
2023/10/14 08:53:06;;;;;;;3.58;0.85;;;;;;;;;;5092810;28;20051;-43
2023/10/14 08:55:34;;;;;;;4.55;0.70;;;;;;;;;;5092775;28;20081;-42
2023/10/14 08:58:05;;;;;;;3.08;0.65;;;;;;;;;;5092716;28;20031;-43
2023/10/14 09:00:36;;;;;;;2.90;0.88;;;;;;;;;;5093012;28;20028;-48
2023/10/14 09:03:07;;;;;;;4.43;1.08;;;;;;;;;;5093141;28;20406;-46
2023/10/14 09:05:41;;;;;;;2.80;0.90;;;;;;;;;;5093074;28;20028;-45
2023/10/14 09:08:11;;;;;;;3.92;0.80;;;;;;;;;;5074848;28;20032;-45
2023/10/14 09:10:38;;;;;;;5.35;1.00;;;;;;;;;;5092377;28;20036;-45
2023/10/14 09:13:08;;;;;;;4.00;0.60;;;;;;;;;;5093318;28;20028;-42
2023/10/14 09:15:43;;;;;;;4.95;1.35;;;;;;;;;;5093177;28;20049;-42
2023/10/14 09:18:36;;;;;;;1.80;0.70;;;;;;;;;;5093220;28;20359;-42
2023/10/14 09:21:05;;;;;;;3.42;0.77;;;;;;;;;;5090881;28;20060;-43
2023/10/14 09:23:39;;;;;;;2.22;0.70;;;;;;;;;;5092420;28;20383;-42
2023/10/14 09:26:07;;;;;;;2.95;0.80;;;;;;;;;;5092031;28;20048;-42
2023/10/14 09:28:35;;;;;;;3.28;0.85;;;;;;;;;;5092217;28;20028;-42
2023/10/14 09:31:07;;;;;;;2.15;0.80;;;;;;;;;;5092208;28;20027;-42
2023/10/14 09:33:35;;;;;;;4.18;0.90;;;;;;;;;;5092035;28;20031;-42
2023/10/14 09:36:11;;;;;;;4.65;0.70;;;;;;;;;;5092071;28;20121;-42
2023/10/14 09:38:39;;;;;;;3.83;0.80;;;;;;;;;;5091835;28;20028;-42
2023/10/14 09:41:07;;;;;;;3.92;0.70;;;;;;;;;;5092062;28;20048;-43
2023/10/14 09:43:39;;;;;;;2.78;0.65;;;;;;;;;;5092070;28;20031;-42
2023/10/14 09:46:11;;;;;;;3.50;0.80;;;;;;;;;;5091887;28;20043;-42
2023/10/14 09:48:38;;;;;;;4.78;0.90;;;;;;;;;;5091687;28;20032;-42
2023/10/14 09:51:06;;;;;;;4.13;0.70;;;;;;;;;;5091931;28;20028;-43
2023/10/14 09:53:34;;;;;;;1.52;0.70;;;;;;;;;;5091926;28;20024;-43
2023/10/14 09:56:05;;;;;;;4.03;0.88;;;;;;;;;;5091929;28;20028;-43
2023/10/14 09:58:36;;;;;;;2.88;0.90;;;;;;;;;;5091963;28;20386;-44
2023/10/14 10:01:07;;;;;;;1.02;0.70;;;;;;;;;;5091789;28;20073;-42
2023/10/14 10:03:36;;;;;;;1.85;0.60;;;;;;;;;;5091842;28;20440;-44
2023/10/14 10:06:10;;;;;;;3.25;0.70;;;;;;;;;;5094771;28;20020;-42
2023/10/14 10:08:52;;;;;;;1.40;0.60;;;;;;;;;;5112084;28;20027;-42
2023/10/14 10:11:25;;;;;;;2.40;0.73;;;;;;;;;;5112033;28;20724;-42
2023/10/14 10:13:53;;;;;;;2.55;0.68;;;;;;;;;;5111927;28;20363;-42
2023/10/14 10:16:21;;;;;;;4.03;0.70;;;;;;;;;;5111892;28;20027;-42
2023/10/14 10:18:52;;;;;;;3.53;0.85;;;;;;;;;;5111355;28;20119;-47
2023/10/14 10:21:20;;;;;;;2.25;0.63;;;;;;;;;;5111557;28;20023;-42
2023/10/14 10:23:55;;;;;;;2.25;0.80;;;;;;;;;;5095800;28;20394;-42
2023/10/14 10:26:23;;;;;;;2.10;0.70;;;;;;;;;;5104408;28;20048;-47
2023/10/14 10:28:50;;;;;;;25.45;1.92;;;;;;;;;;5103526;28;20042;-48
2023/10/14 10:31:24;;;;;;;70.20;4.30;;;;;;;;;;5105490;28;20031;-46
2023/10/14 10:34:02;;;;;;;31.05;3.33;;;;;;;;;;5106113;28;20062;-47
2023/10/14 10:36:30;;;;;;;61.45;3.90;;;;;;;;;;5104468;28;20044;-42
2023/10/14 10:39:05;;;;;;;74.65;6.47;;;;;;;;;;5095634;28;20036;-42
2023/10/14 10:41:37;;;;;;;89.45;7.70;;;;;;;;;;5104892;28;20032;-47
2023/10/14 10:44:06;;;;;;;98.35;8.75;;;;;;;;;;5103917;28;20024;-48
2023/10/14 10:46:41;;;;;;;75.72;7.40;;;;;;;;;;5105376;28;20461;-43
2023/10/14 10:49:12;;;;;;;76.03;7.18;;;;;;;;;;5106670;28;20115;-43
2023/10/14 10:52:01;;;;;;;70.00;6.72;;;;;;;;;;5103863;28;20074;-46
2023/10/14 10:54:28;;;;;;;75.82;6.43;;;;;;;;;;5090469;28;20047;-43
2023/10/14 10:56:55;;;;;;;53.88;5.78;;;;;;;;;;5105047;28;20488;-45
2023/10/14 10:59:22;;;;;;;57.97;5.65;;;;;;;;;;5103643;28;20036;-43
2023/10/14 11:01:49;;;;;;;47.03;5.55;;;;;;;;;;5105137;28;20059;-46
2023/10/14 11:04:16;;;;;;;50.78;6.13;;;;;;;;;;5103624;28;20504;-47
2023/10/14 11:06:43;;;;;;;73.10;7.90;;;;;;;;;;5113815;28;20042;-43
2023/10/14 11:09:12;;;;;;;68.18;7.30;;;;;;;;;;5111292;28;20385;-49
2023/10/14 11:11:40;;;;;;;55.33;5.53;;;;;;;;;;5114980;28;20549;-46
2023/10/14 11:14:22;;;;;;;49.38;5.30;;;;;;;;;;5115271;28;20027;-52
2023/10/14 11:16:52;;;;;;;51.60;5.13;;;;;;;;;;5114960;28;20066;-46
2023/10/14 11:19:22;;;;;;;35.20;4.53;;;;;;;;;;5115052;28;20035;-46
2023/10/14 11:21:52;;;;;;;47.28;4.90;;;;;;;;;;5115050;28;20028;-47
2023/10/14 11:24:20;;;;;;;31.40;3.83;;;;;;;;;;5115064;28;20763;-46
2023/10/14 11:26:47;;;;;;;33.63;4.10;;;;;;;;;;5114584;28;20040;-49
2023/10/14 11:29:14;;;;;;;36.78;4.22;;;;;;;;;;5114889;28;20371;-48
2023/10/14 11:31:44;;;;;;;34.10;3.78;;;;;;;;;;5101371;28;20032;-42
2023/10/14 11:34:14;;;;;;;27.50;3.63;;;;;;;;;;5101737;28;20430;-45
2023/10/14 11:36:45;;;;;;;26.80;3.97;;;;;;;;;;5103280;28;20040;-43
2023/10/14 11:39:14;;;;;;;28.92;3.88;;;;;;;;;;5102997;28;20115;-47
2023/10/14 11:41:42;;;;;;;29.35;4.10;;;;;;;;;;5103290;28;20027;-44
2023/10/14 11:44:09;;;;;;;31.45;3.58;;;;;;;;;;5104637;28;20028;-44
2023/10/14 11:46:38;;;;;;;24.65;3.25;;;;;;;;;;5103382;28;20033;-47
2023/10/14 11:49:09;;;;;;;31.20;3.92;;;;;;;;;;5104275;28;20106;-47
2023/10/14 11:51:38;;;;;;;17.52;3.08;;;;;;;;;;5102568;28;20028;-47
2023/10/14 11:54:07;;;;;;;19.98;3.33;;;;;;;;;;5103522;28;20030;-47
2023/10/14 11:56:36;;;;;;;17.30;3.53;;;;;;;;;;5104626;28;20031;-43
2023/10/14 11:59:04;;;;;;;32.28;3.97;;;;;;;;;;5098435;28;20040;-43
2023/10/14 12:01:34;;;;;;;30.08;4.15;;;;;;;;;;5113859;28;20039;-44
2023/10/14 12:04:04;;;;;;;36.35;4.10;;;;;;;;;;5113621;28;20047;-48
2023/10/14 12:06:34;;;;;;;26.30;3.92;;;;;;;;;;5113771;28;20027;-46
2023/10/14 12:09:10;;;;;;;30.38;3.58;;;;;;;;;;5113706;28;20394;-43
2023/10/14 12:11:43;;;;;;;24.27;3.10;;;;;;;;;;5113571;28;20436;-50
2023/10/14 12:14:15;;;;;;;25.55;3.65;;;;;;;;;;5113793;28;20166;-49
2023/10/14 12:16:43;;;;;;;25.95;3.80;;;;;;;;;;5113791;28;20043;-43
2023/10/14 12:19:14;;;;;;;17.33;2.70;;;;;;;;;;5113675;28;20030;-48
2023/10/14 12:21:41;;;;;;;24.13;2.55;;;;;;;;;;5113316;28;20032;-44
2023/10/14 12:24:09;;;;;;;18.33;2.50;;;;;;;;;;5113617;28;20028;-42
2023/10/14 12:26:43;;;;;;;22.55;2.30;;;;;;;;;;5113105;28;20088;-45
2023/10/14 12:29:11;;;;;;;15.30;2.58;;;;;;;;;;5113293;28;20110;-45
2023/10/14 12:31:44;;;;;;;22.58;2.60;;;;;;;;;;5093992;28;20039;-45
2023/10/14 12:34:12;;;;;;;23.38;2.53;;;;;;;;;;5111180;28;20068;-42
2023/10/14 12:36:40;;;;;;;17.55;2.70;;;;;;;;;;5087636;28;20051;-45
2023/10/14 12:39:33;;;;;;;17.40;2.63;;;;;;;;;;5111078;28;20061;-42
2023/10/14 12:42:02;;;;;;;26.20;2.88;;;;;;;;;;5106343;28;20529;-45
2023/10/14 12:44:29;;;;;;;27.63;4.68;;;;;;;;;;5095489;28;20039;-43
2023/10/14 12:46:56;;;;;;;31.35;7.97;;;;;;;;;;5111994;28;20019;-46
2023/10/14 12:49:23;;;;;;;36.95;11.68;;;;;;;;;;5113021;28;20037;-43
2023/10/14 12:51:56;;;;;;;34.72;10.60;;;;;;;;;;5112710;28;20027;-42
2023/10/14 12:54:29;;;;;;;32.05;10.63;;;;;;;;;;5112101;28;20047;-44
2023/10/14 12:56:56;;;;;;;38.58;11.35;;;;;;;;;;5111377;28;20039;-43
2023/10/14 12:59:24;;;;;;;41.15;10.63;;;;;;;;;;5113076;28;20044;-49
2023/10/14 13:01:58;;;;;;;44.17;9.80;;;;;;;;;;5113284;28;20058;-48
2023/10/14 13:04:27;;;;;;;43.70;9.40;;;;;;;;;;5112977;28;20040;-51
2023/10/14 13:06:54;;;;;;;45.90;9.07;;;;;;;;;;5112813;28;20047;-51
2023/10/14 13:09:26;;;;;;;49.95;8.65;;;;;;;;;;5113058;28;20048;-52
2023/10/14 13:11:55;;;;;;;36.13;7.50;;;;;;;;;;5112798;28;20035;-52
2023/10/14 13:14:28;;;;;;;43.05;7.78;;;;;;;;;;5094564;28;20430;-53
2023/10/14 13:16:59;;;;;;;35.55;6.70;;;;;;;;;;5112739;28;20032;-51
2023/10/14 13:19:26;;;;;;;53.70;6.85;;;;;;;;;;5094591;28;20039;-52
2023/10/14 13:21:55;;;;;;;32.72;6.25;;;;;;;;;;5112766;28;20020;-50
2023/10/14 13:24:22;;;;;;;43.20;7.22;;;;;;;;;;5112421;28;20098;-50
2023/10/14 13:26:49;;;;;;;36.63;6.20;;;;;;;;;;5112380;28;20035;-47
2023/10/14 13:29:16;;;;;;;31.35;6.05;;;;;;;;;;5112554;28;20039;-52
2023/10/14 13:31:43;;;;;;;37.38;5.57;;;;;;;;;;5112600;28;20030;-53
2023/10/14 13:34:10;;;;;;;33.63;6.50;;;;;;;;;;5112569;28;20019;-49
2023/10/14 13:36:37;;;;;;;29.75;5.05;;;;;;;;;;5112201;28;20035;-53
2023/10/14 13:39:08;;;;;;;32.63;4.70;;;;;;;;;;5111893;28;20146;-53
2023/10/14 13:41:38;;;;;;;31.88;5.00;;;;;;;;;;5112310;28;20032;-54
2023/10/14 13:44:05;;;;;;;33.10;4.90;;;;;;;;;;5112160;28;20042;-50
2023/10/14 13:46:32;;;;;;;36.42;5.25;;;;;;;;;;5112250;28;20032;-52
2023/10/14 13:48:59;;;;;;;40.45;5.53;;;;;;;;;;5112047;28;20028;-51
2023/10/14 13:51:28;;;;;;;34.25;5.10;;;;;;;;;;5112241;28;20024;-53
2023/10/14 13:53:55;;;;;;;39.30;5.32;;;;;;;;;;5112132;28;20072;-51
2023/10/14 13:56:22;;;;;;;38.80;5.22;;;;;;;;;;5111905;28;20114;-48
2023/10/14 13:58:49;;;;;;;29.10;5.20;;;;;;;;;;5112224;28;20044;-50
2023/10/14 14:01:19;;;;;;;44.25;4.85;;;;;;;;;;5112085;28;20024;-52
2023/10/14 14:04:01;;;;;;;44.38;5.35;;;;;;;;;;5112227;28;20023;-53
2023/10/14 14:06:28;;;;;;;47.33;6.13;;;;;;;;;;5112129;28;20038;-48
2023/10/14 14:09:02;;;;;;;47.33;6.22;;;;;;;;;;5112085;28;20035;-53
2023/10/14 14:11:29;;;;;;;47.38;6.22;;;;;;;;;;5112207;28;20036;-49
2023/10/14 14:13:58;;;;;;;52.92;6.30;;;;;;;;;;5112081;28;20371;-53
2023/10/14 14:16:25;;;;;;;49.33;5.93;;;;;;;;;;5111932;28;20042;-54
2023/10/14 14:18:52;;;;;;;47.65;6.63;;;;;;;;;;5112022;28;20024;-54
2023/10/14 14:21:20;;;;;;;55.28;5.40;;;;;;;;;;5111990;28;20030;-53
2023/10/14 14:23:48;;;;;;;47.40;5.80;;;;;;;;;;5111860;28;20046;-53
2023/10/14 14:26:18;;;;;;;46.90;6.32;;;;;;;;;;5111819;28;20690;-54
2023/10/14 14:28:46;;;;;;;41.40;6.20;;;;;;;;;;5111955;28;20032;-53
2023/10/14 14:31:13;;;;;;;45.92;5.90;;;;;;;;;;5111966;28;20030;-54
2023/10/14 14:33:45;;;;;;;44.45;5.35;;;;;;;;;;5093620;28;20035;-53
2023/10/14 14:36:12;;;;;;;52.72;5.38;;;;;;;;;;5111698;28;20127;-53
2023/10/14 14:38:40;;;;;;;43.65;5.93;;;;;;;;;;5111755;28;20043;-49
2023/10/14 14:41:12;;;;;;;41.22;5.10;;;;;;;;;;5111717;28;20024;-51
2023/10/14 14:43:41;;;;;;;40.88;5.47;;;;;;;;;;5111662;28;20066;-54
2023/10/14 14:46:08;;;;;;;42.22;6.20;;;;;;;;;;5111657;28;20046;-54
2023/10/14 14:48:35;;;;;;;39.67;4.55;;;;;;;;;;5111635;28;20092;-53
2023/10/14 14:51:03;;;;;;;36.17;5.03;;;;;;;;;;5111748;28;20055;-51
2023/10/14 14:53:31;;;;;;;36.55;5.38;;;;;;;;;;5111523;28;20027;-49
2023/10/14 14:55:59;;;;;;;40.75;5.75;;;;;;;;;;5111518;28;20446;-52
2023/10/14 14:58:26;;;;;;;39.83;5.22;;;;;;;;;;5111559;28;20040;-51
2023/10/14 15:00:53;;;;;;;33.90;4.80;;;;;;;;;;5111689;28;20088;-51
2023/10/14 15:03:20;;;;;;;35.63;4.38;;;;;;;;;;5111650;28;20020;-51
2023/10/14 15:05:50;;;;;;;33.47;5.25;;;;;;;;;;5111484;28;20048;-51
2023/10/14 15:08:18;;;;;;;32.95;4.88;;;;;;;;;;5111929;28;20027;-54
2023/10/14 15:10:45;;;;;;;24.63;4.57;;;;;;;;;;5115372;28;20492;-52
2023/10/14 15:13:13;;;;;;;27.83;3.30;;;;;;;;;;5115278;28;20440;-54
2023/10/14 15:15:41;;;;;;;28.88;4.75;;;;;;;;;;5115077;28;20035;-53
2023/10/14 15:18:08;;;;;;;27.80;4.22;;;;;;;;;;5115065;28;20046;-50
2023/10/14 15:20:36;;;;;;;26.58;4.00;;;;;;;;;;5115064;28;20020;-49
2023/10/14 15:23:03;;;;;;;28.38;4.32;;;;;;;;;;5114820;28;20035;-50
2023/10/14 15:25:36;;;;;;;30.55;4.03;;;;;;;;;;5114815;28;20565;-51
2023/10/14 15:28:07;;;;;;;23.33;3.47;;;;;;;;;;5114963;28;20097;-53
2023/10/14 15:30:35;;;;;;;20.00;3.47;;;;;;;;;;5114914;28;20035;-51